createdAt,value
2023-04-12T00:00:15.721Z,6.23
2023-04-12T00:05:22.867Z,6.43
2023-04-12T00:10:26.534Z,4.60
2023-04-12T00:15:29.774Z,2.43
2023-04-12T00:20:34.179Z,4.23
2023-04-12T00:25:38.629Z,1.17
2023-04-12T00:30:41.976Z,3.90
2023-04-12T00:35:46.751Z,3.13
2023-04-12T00:40:51.536Z,1.47
2023-04-12T00:45:56.702Z,2.53
2023-04-12T00:51:04.905Z,2.33
2023-04-12T00:56:12.044Z,1.60
2023-04-12T01:01:17.374Z,2.70
2023-04-12T01:06:51.914Z,2.30
2023-04-12T01:12:17.378Z,1.80
2023-04-12T01:17:25.094Z,4.90
2023-04-12T01:22:46.449Z,3.47
2023-04-12T01:27:54.193Z,1.70
2023-04-12T01:33:00.905Z,4.23
2023-04-12T01:38:05.457Z,2.83
2023-04-12T01:43:11.942Z,3.77
2023-04-12T01:48:14.829Z,4.77
2023-04-12T01:53:24.079Z,4.23
2023-04-12T01:58:31.145Z,4.53
2023-04-12T02:03:34.930Z,3.67
2023-04-12T02:08:38.527Z,3.00
2023-04-12T02:13:42.828Z,3.10
2023-04-12T02:18:45.799Z,4.60
2023-04-12T02:23:53.183Z,3.10
2023-04-12T02:28:58.256Z,1.43
2023-04-12T02:34:01.774Z,1.97
2023-04-12T02:39:05.999Z,6.17
2023-04-12T02:44:12.409Z,3.77
2023-04-12T02:49:20.473Z,3.77
2023-04-12T02:54:24.651Z,2.40
2023-04-12T02:59:32.269Z,3.83
2023-04-12T03:04:47.035Z,3.57
2023-04-12T03:09:55.519Z,3.40
2023-04-12T03:15:02.029Z,2.87
2023-04-12T03:20:10.291Z,3.27
2023-04-12T03:25:18.075Z,4.83
2023-04-12T03:30:28.832Z,5.77
2023-04-12T03:35:33.744Z,3.30
2023-04-12T03:40:38.100Z,4.13
2023-04-12T03:45:44.101Z,2.23
2023-04-12T03:50:48.553Z,1.90
2023-04-12T03:55:57.130Z,1.63
2023-04-12T04:01:07.349Z,2.60
2023-04-12T04:06:12.839Z,3.03
2023-04-12T04:11:16.715Z,2.10
2023-04-12T04:16:27.070Z,2.20
2023-04-12T04:21:32.199Z,4.13
2023-04-12T04:26:38.438Z,1.20
2023-04-12T04:31:49.595Z,2.53
2023-04-12T04:36:53.661Z,1.33
2023-04-12T04:42:00.460Z,2.47
2023-04-12T04:47:15.570Z,1.43
2023-04-12T04:52:19.673Z,2.13
2023-04-12T04:57:24.745Z,1.63
2023-04-12T05:02:31.774Z,2.63
2023-04-12T05:07:36.403Z,2.83
2023-04-12T05:12:40.320Z,2.20
2023-04-12T05:17:45.202Z,1.50
2023-04-12T05:22:50.610Z,2.23
2023-04-12T05:27:53.984Z,2.63
2023-04-12T05:32:58.737Z,2.70
2023-04-12T05:38:03.836Z,3.37
2023-04-12T05:43:07.491Z,2.80
2023-04-12T05:48:12.020Z,1.93
2023-04-12T05:53:15.760Z,2.70
2023-04-12T05:58:19.027Z,2.63
2023-04-12T06:03:25.767Z,5.17
2023-04-12T06:08:36.130Z,2.73
2023-04-12T06:13:40.153Z,3.03
2023-04-12T06:18:45.115Z,2.77
2023-04-12T06:23:50.323Z,6.53
2023-04-12T06:28:54.536Z,5.33
2023-04-12T06:33:59.001Z,3.53
2023-04-12T06:39:03.228Z,5.00
2023-04-12T06:44:06.325Z,5.30
2023-04-12T06:49:10.976Z,8.47
2023-04-12T06:54:15.114Z,5.20
2023-04-12T06:59:18.378Z,5.37
2023-04-12T07:04:22.876Z,5.20
2023-04-12T07:09:26.616Z,5.23
2023-04-12T07:14:29.787Z,8.03
2023-04-12T07:19:34.300Z,6.87
2023-04-12T07:24:37.425Z,8.13
2023-04-12T07:29:40.563Z,6.20
2023-04-12T07:34:44.917Z,7.97
2023-04-12T07:39:48.102Z,11.97
2023-04-12T07:44:51.448Z,13.67
2023-04-12T07:49:57.671Z,13.60
2023-04-12T07:55:00.845Z,12.97
2023-04-12T08:00:05.922Z,10.80
2023-04-12T08:05:17.645Z,16.90
2023-04-12T08:10:21.035Z,19.47
2023-04-12T08:15:24.295Z,15.93
2023-04-12T08:20:29.222Z,17.97
2023-04-12T08:25:32.393Z,15.33
2023-04-12T08:30:35.931Z,13.40
2023-04-12T08:35:41.366Z,15.63
2023-04-12T08:40:46.543Z,17.43
2023-04-12T08:45:51.101Z,16.83
2023-04-12T08:50:57.490Z,18.03
2023-04-12T08:56:00.693Z,17.63
2023-04-12T09:01:04.396Z,15.87
2023-04-12T09:06:09.999Z,16.80
2023-04-12T09:11:24.478Z,16.83
2023-04-12T09:16:38.291Z,15.83
2023-04-12T09:21:54.173Z,14.53
2023-04-12T09:27:04.904Z,13.10
2023-04-12T09:32:09.577Z,15.70
2023-04-12T09:37:17.873Z,10.83
2023-04-12T09:47:39.626Z,11.10
2023-04-12T09:52:44.659Z,12.80
2023-04-12T09:57:50.796Z,9.60
2023-04-12T10:02:55.939Z,10.37
2023-04-12T10:08:01.351Z,12.17
2023-04-12T10:13:07.730Z,10.63
2023-04-12T10:18:12.810Z,10.10
2023-04-12T10:23:17.968Z,13.07
2023-04-12T10:28:23.078Z,8.67
2023-04-12T10:33:32.724Z,11.60
2023-04-12T10:38:48.868Z,8.13
2023-04-12T10:44:27.182Z,10.00
2023-04-12T10:49:30.626Z,7.47
2023-04-12T10:54:36.683Z,6.57
2023-04-12T10:59:52.808Z,6.97
2023-04-12T11:05:08.749Z,7.90
2023-04-12T11:10:33.186Z,11.37
2023-04-12T11:15:36.738Z,6.23
2023-04-12T11:20:41.093Z,7.80
2023-04-12T11:25:50.938Z,4.57
2023-04-12T11:30:54.750Z,8.27
2023-04-12T11:35:57.930Z,8.60
2023-04-12T11:41:02.491Z,9.63
2023-04-12T11:46:06.717Z,8.43
2023-04-12T11:51:31.653Z,5.80
2023-04-12T11:56:37.295Z,6.87
2023-04-12T12:01:40.439Z,5.80
2023-04-12T12:06:44.069Z,7.73
2023-04-12T12:11:51.787Z,5.33
2023-04-12T12:16:56.998Z,6.17
2023-04-12T12:22:15.976Z,6.03
2023-04-12T12:27:22.056Z,8.60
2023-04-12T12:32:25.852Z,6.03
2023-04-12T12:37:30.247Z,5.30
2023-04-12T12:42:35.984Z,7.97
2023-04-12T12:47:50.979Z,6.60
2023-04-12T12:52:55.747Z,8.97
2023-04-12T12:58:07.975Z,6.73
2023-04-12T13:03:12.014Z,6.23
2023-04-12T13:08:15.518Z,6.93
2023-04-12T13:13:21.011Z,5.83
2023-04-12T13:18:24.017Z,6.17
2023-04-12T13:23:27.358Z,5.97
2023-04-12T13:28:32.173Z,2.77
2023-04-12T13:33:35.556Z,4.83
2023-04-12T13:38:38.624Z,4.37
2023-04-12T13:43:43.414Z,5.23
2023-04-12T13:48:46.484Z,2.67
2023-04-12T13:53:52.384Z,3.33
2023-04-12T13:58:59.237Z,4.33
2023-04-12T14:04:02.964Z,1.60
2023-04-12T14:09:07.107Z,2.13
2023-04-12T14:14:11.721Z,1.37
2023-04-12T14:19:14.961Z,2.57
2023-04-12T14:24:19.287Z,2.17
2023-04-12T14:29:23.820Z,0.97
2023-04-12T14:34:27.030Z,2.43
2023-04-12T14:39:31.023Z,2.17
2023-04-12T14:44:35.466Z,1.77
2023-04-12T14:49:38.637Z,1.03
2023-04-12T14:54:41.760Z,2.50
2023-04-12T14:59:46.555Z,3.33
2023-04-12T15:04:51.220Z,3.00
2023-04-12T15:09:55.458Z,0.93
2023-04-12T15:15:00.214Z,1.23
2023-04-12T15:20:09.253Z,2.27
2023-04-12T15:25:12.759Z,2.40
2023-04-12T15:30:18.076Z,3.07
2023-04-12T15:35:27.005Z,2.43
2023-04-12T15:40:30.687Z,2.13
2023-04-12T15:45:35.552Z,2.37
2023-04-12T15:50:39.079Z,3.80
2023-04-12T15:55:45.389Z,2.90
2023-04-12T16:01:00.744Z,1.73
2023-04-12T16:06:06.035Z,3.83
2023-04-12T16:11:12.214Z,3.83
2023-04-12T16:16:18.582Z,2.43
2023-04-12T16:21:23.434Z,3.17
2023-04-12T16:26:27.281Z,4.23
2023-04-12T16:31:32.130Z,4.83
2023-04-12T16:36:35.763Z,4.53
2023-04-12T16:41:38.925Z,8.17
2023-04-12T16:46:45.454Z,3.57
2023-04-12T16:51:48.620Z,5.23
2023-04-12T16:56:51.729Z,3.43
2023-04-12T17:01:56.114Z,3.33
2023-04-12T17:06:59.198Z,3.03
2023-04-12T17:12:02.438Z,5.97
2023-04-12T17:17:07.456Z,4.27
2023-04-12T17:22:10.928Z,7.47
2023-04-12T17:27:14.305Z,5.17
2023-04-12T17:32:19.053Z,6.33
2023-04-12T17:37:23.014Z,4.37
2023-04-12T17:42:29.390Z,4.00
2023-04-12T17:47:37.629Z,6.40
2023-04-12T17:52:41.241Z,4.23
2023-04-12T17:57:44.652Z,4.33
2023-04-12T18:02:52.848Z,4.40
2023-04-12T18:07:57.103Z,4.67
2023-04-12T18:13:00.330Z,5.03
2023-04-12T18:18:05.358Z,5.17
2023-04-12T18:23:08.618Z,4.67
2023-04-12T18:28:19.036Z,5.10
2023-04-12T18:33:24.221Z,6.23
2023-04-12T18:38:32.484Z,4.50
2023-04-12T18:43:35.687Z,5.47
2023-04-12T18:48:41.660Z,4.80
2023-04-12T18:53:44.696Z,7.13
2023-04-12T18:58:55.032Z,4.57
2023-04-12T19:04:04.375Z,6.70
2023-04-12T19:09:08.929Z,4.50
2023-04-12T19:14:12.163Z,6.07
2023-04-12T19:19:16.852Z,7.27
2023-04-12T19:24:20.314Z,3.53
2023-04-12T19:29:24.401Z,6.03
2023-04-12T19:34:29.145Z,3.20
2023-04-12T19:39:33.523Z,3.13
2023-04-12T19:44:38.308Z,5.13
2023-04-12T19:49:44.876Z,6.40
2023-04-12T19:54:48.499Z,7.20
2023-04-12T19:59:52.314Z,10.47
2023-04-12T20:04:57.065Z,12.27
2023-04-12T20:10:00.668Z,4.83
2023-04-12T20:15:04.545Z,2.33
2023-04-12T20:20:12.847Z,3.57
2023-04-12T20:25:16.615Z,4.70
2023-04-12T20:30:26.254Z,3.50
2023-04-12T20:35:31.020Z,2.07
2023-04-12T20:40:36.052Z,2.73
2023-04-12T20:45:39.464Z,3.43
2023-04-12T20:50:44.115Z,1.70
2023-04-12T20:55:54.951Z,1.30
2023-04-12T21:00:58.890Z,2.90
2023-04-12T21:06:03.937Z,2.20
2023-04-12T21:11:07.379Z,6.13
2023-04-12T21:16:16.224Z,4.93
2023-04-12T21:21:20.994Z,3.77
2023-04-12T21:26:24.414Z,3.97
2023-04-12T21:31:29.216Z,2.57
2023-04-12T21:36:34.235Z,3.10
2023-04-12T21:41:37.508Z,3.20
2023-04-12T21:46:40.677Z,1.40
2023-04-12T21:51:46.182Z,1.80
2023-04-12T21:56:51.752Z,2.63
2023-04-12T22:01:54.882Z,3.80
2023-04-12T22:07:02.206Z,2.87
2023-04-12T22:12:06.705Z,2.00
2023-04-12T22:17:09.977Z,2.17
2023-04-12T22:22:16.394Z,2.00
2023-04-12T22:27:19.486Z,1.77
2023-04-12T22:32:22.765Z,5.10
2023-04-12T22:37:27.793Z,2.03
2023-04-12T22:42:31.140Z,1.70
2023-04-12T22:47:34.670Z,1.63
2023-04-12T22:52:39.839Z,2.07
2023-04-12T22:57:43.594Z,1.67
2023-04-12T23:02:48.750Z,2.97
2023-04-12T23:07:53.402Z,2.27
2023-04-12T23:12:56.430Z,1.77
2023-04-12T23:18:01.805Z,3.40
2023-04-12T23:23:06.390Z,1.30
2023-04-12T23:28:13.271Z,2.47
2023-04-12T23:33:18.354Z,2.60
2023-04-12T23:38:32.034Z,3.90
2023-04-12T23:43:35.910Z,1.50
2023-04-12T23:48:39.195Z,0.70
2023-04-12T23:53:43.641Z,0.63
2023-04-12T23:58:47.210Z,1.03
